Time;durP1;ratioP1;P1;durP2;ratioP2;P2;SDS_P1;SDS_P2;PMS_P1;PMS_P2;Temp;Humidity;BMP_temperature;BMP_pressure;BME280_temperature;BME280_humidity;BME280_pressure;Samples;Min_cycle;Max_cycle;Signal;HPM_P1;HPM_P2
2023/12/05 00:01:59;;;;;;;7.65;4.60;;;0.70;99.90;;;;;;4972023;28;20057;-74
2023/12/05 00:04:25;;;;;;;9.25;4.25;;;0.60;99.90;;;;;;4988508;28;20416;-73
2023/12/05 00:06:50;;;;;;;7.57;4.55;;;0.70;99.90;;;;;;4989226;28;20512;-73
2023/12/05 00:09:16;;;;;;;8.70;4.72;;;0.60;99.90;;;;;;4971453;28;20056;-74
2023/12/05 00:11:42;;;;;;;8.45;4.68;;;0.60;99.90;;;;;;4972912;28;20141;-73
2023/12/05 00:14:08;;;;;;;7.75;4.90;;;0.60;99.90;;;;;;4987396;28;20042;-74
2023/12/05 00:16:33;;;;;;;8.95;4.35;;;0.50;99.90;;;;;;4988915;28;20045;-73
2023/12/05 00:18:59;;;;;;;9.15;5.22;;;0.50;99.90;;;;;;4952757;28;20054;-73
2023/12/05 00:21:25;;;;;;;4.70;3.80;;;0.50;99.90;;;;;;4986957;28;20492;-74
2023/12/05 00:23:51;;;;;;;4.57;3.40;;;0.50;99.90;;;;;;5004555;28;20042;-73
2023/12/05 00:26:16;;;;;;;5.35;3.33;;;0.50;99.90;;;;;;5021499;28;20049;-73
2023/12/05 00:28:42;;;;;;;11.55;5.93;;;0.40;99.90;;;;;;4988867;28;20397;-73
2023/12/05 00:31:08;;;;;;;6.43;3.78;;;0.50;99.90;;;;;;4985029;28;20378;-73
2023/12/05 00:33:34;;;;;;;7.70;4.68;;;0.50;99.90;;;;;;4988194;28;20054;-74
2023/12/05 00:35:59;;;;;;;9.27;5.28;;;0.40;99.90;;;;;;4982602;28;20088;-74
2023/12/05 00:38:25;;;;;;;12.50;5.95;;;0.40;99.90;;;;;;4980879;28;20205;-73
2023/12/05 00:40:51;;;;;;;12.07;5.38;;;0.40;99.90;;;;;;4954811;28;20418;-73
2023/12/05 00:43:18;;;;;;;9.38;5.75;;;0.40;99.90;;;;;;4996832;28;20046;-73
2023/12/05 00:45:44;;;;;;;14.90;6.55;;;0.40;99.90;;;;;;4987840;28;20049;-73
2023/12/05 00:48:09;;;;;;;11.23;5.70;;;0.40;99.90;;;;;;4978939;28;20116;-73
2023/12/05 00:50:35;;;;;;;11.88;6.03;;;0.40;99.90;;;;;;4989037;28;20046;-73
2023/12/05 00:53:01;;;;;;;7.93;4.85;;;0.40;99.90;;;;;;4970792;28;20045;-74
2023/12/05 00:55:27;;;;;;;9.95;5.28;;;0.40;99.90;;;;;;4971792;28;20099;-73
2023/12/05 00:57:52;;;;;;;9.88;5.85;;;0.40;99.90;;;;;;4971650;28;20527;-73
2023/12/05 01:00:19;;;;;;;9.93;4.60;;;0.40;99.90;;;;;;4987417;28;20107;-73
2023/12/05 01:02:44;;;;;;;6.80;4.88;;;0.40;99.90;;;;;;4999348;28;20455;-73
2023/12/05 01:05:10;;;;;;;7.93;4.65;;;0.40;99.90;;;;;;4970490;28;20053;-73
2023/12/05 01:07:36;;;;;;;11.77;6.18;;;0.30;99.90;;;;;;4972230;28;20401;-73
2023/12/05 01:10:05;;;;;;;10.15;5.65;;;0.30;99.90;;;;;;4970671;28;20334;-73
2023/12/05 01:12:31;;;;;;;9.07;5.13;;;0.30;99.90;;;;;;4971123;28;20096;-73
2023/12/05 01:14:57;;;;;;;10.82;5.63;;;0.30;99.90;;;;;;4984483;28;20046;-73
2023/12/05 01:17:23;;;;;;;9.55;5.25;;;0.30;99.90;;;;;;4965911;28;20053;-73
2023/12/05 01:19:49;;;;;;;8.90;5.13;;;0.30;99.90;;;;;;4987434;28;20415;-73
2023/12/05 01:22:14;;;;;;;9.50;6.03;;;0.30;99.90;;;;;;4986388;28;20049;-73
2023/12/05 01:24:41;;;;;;;10.65;5.93;;;0.40;99.90;;;;;;4987192;28;20042;-73
2023/12/05 01:27:07;;;;;;;8.70;5.00;;;0.30;99.90;;;;;;4986336;28;20088;-73
2023/12/05 01:29:33;;;;;;;10.45;4.93;;;0.30;99.90;;;;;;4987536;28;20085;-73
2023/12/05 01:31:59;;;;;;;11.65;5.43;;;0.40;99.90;;;;;;4985603;28;20137;-73
2023/12/05 01:34:24;;;;;;;8.25;5.15;;;0.30;99.90;;;;;;4971687;28;20111;-73
2023/12/05 01:36:50;;;;;;;11.15;6.00;;;0.30;99.90;;;;;;4986708;28;20064;-74
2023/12/05 01:39:16;;;;;;;10.52;5.78;;;0.30;99.90;;;;;;4967462;28;20038;-73
2023/12/05 01:41:42;;;;;;;10.82;6.40;;;0.40;99.90;;;;;;4999103;28;20054;-73
2023/12/05 01:44:08;;;;;;;10.48;5.85;;;0.40;99.90;;;;;;4986338;28;20058;-73
2023/12/05 01:46:34;;;;;;;13.95;5.32;;;0.40;99.90;;;;;;4955538;28;20103;-73
2023/12/05 01:49:00;;;;;;;10.85;6.38;;;0.30;99.90;;;;;;5019240;28;20057;-73
2023/12/05 01:51:27;;;;;;;10.68;5.82;;;0.30;99.90;;;;;;4954479;28;20125;-73
2023/12/05 01:53:53;;;;;;;8.70;5.35;;;0.30;99.90;;;;;;4951721;28;20050;-73
2023/12/05 01:56:21;;;;;;;9.35;5.78;;;0.30;99.90;;;;;;4985794;28;20092;-73
2023/12/05 01:58:46;;;;;;;12.48;6.15;;;0.30;99.90;;;;;;4987162;28;20062;-73
2023/12/05 02:01:15;;;;;;;10.20;5.32;;;0.30;99.90;;;;;;4985647;28;20161;-73
2023/12/05 02:03:43;;;;;;;8.38;5.15;;;0.40;99.90;;;;;;4986794;28;20054;-73
2023/12/05 02:06:10;;;;;;;4.70;3.78;;;0.30;99.90;;;;;;4985688;28;20191;-74
2023/12/05 02:08:36;;;;;;;1.63;1.33;;;0.40;99.90;;;;;;4987124;28;20045;-73
2023/12/05 02:11:02;;;;;;;6.35;4.32;;;0.30;99.90;;;;;;4985406;28;20037;-73
2023/12/05 02:13:28;;;;;;;6.60;4.75;;;0.40;99.90;;;;;;4980150;28;20057;-72
2023/12/05 02:16:30;;;;;;;11.73;6.70;;;0.40;99.90;;;;;;4982127;28;20128;-73
2023/12/05 02:19:40;;;;;;;13.48;7.10;;;0.40;99.90;;;;;;4955402;28;20463;-73
2023/12/05 02:22:26;;;;;;;10.60;6.25;;;0.40;99.90;;;;;;4890047;29;20613;-73
2023/12/05 02:25:01;;;;;;;12.00;7.00;;;0.30;99.90;;;;;;4908536;29;20062;-73
2023/12/05 02:27:39;;;;;;;12.35;6.68;;;0.30;99.90;;;;;;4966375;28;20058;-73
2023/12/05 02:30:05;;;;;;;11.40;6.07;;;0.30;99.90;;;;;;4979546;28;20046;-73
2023/12/05 02:32:31;;;;;;;8.77;5.65;;;0.40;99.90;;;;;;4969309;28;20088;-73
2023/12/05 02:34:57;;;;;;;9.77;5.50;;;0.30;99.90;;;;;;4950941;28;20043;-73
2023/12/05 02:37:49;;;;;;;9.20;5.57;;;0.30;99.90;;;;;;4965310;28;20550;-73
2023/12/05 02:40:26;;;;;;;11.27;6.05;;;0.30;99.90;;;;;;4945945;28;20476;-73
2023/12/05 02:42:55;;;;;;;10.80;5.35;;;0.30;99.90;;;;;;4966968;28;20050;-73
2023/12/05 02:45:24;;;;;;;10.85;5.93;;;0.30;99.90;;;;;;4949934;28;20050;-73
2023/12/05 02:47:51;;;;;;;10.27;6.20;;;0.30;99.90;;;;;;4966712;28;20042;-73
2023/12/05 02:50:19;;;;;;;17.13;7.20;;;0.40;99.90;;;;;;4966762;28;20476;-73
2023/12/05 02:52:45;;;;;;;14.60;7.50;;;0.30;99.90;;;;;;4965788;28;20049;-74
2023/12/05 02:55:11;;;;;;;11.45;6.30;;;0.30;99.90;;;;;;4966639;28;20046;-73
2023/12/05 02:57:37;;;;;;;10.85;6.35;;;0.30;99.90;;;;;;4966331;28;20138;-73
2023/12/05 03:00:06;;;;;;;11.88;7.03;;;0.30;99.90;;;;;;4966595;28;20046;-73
2023/12/05 03:02:32;;;;;;;10.48;6.10;;;0.30;99.90;;;;;;4949583;28;20080;-74
2023/12/05 03:04:58;;;;;;;13.23;6.78;;;0.30;99.90;;;;;;4967050;28;20078;-73
2023/12/05 03:07:23;;;;;;;11.20;6.65;;;0.40;99.90;;;;;;4949790;28;20505;-73
2023/12/05 03:09:49;;;;;;;11.93;6.75;;;0.30;99.90;;;;;;4950436;28;20038;-74
2023/12/05 03:12:15;;;;;;;12.40;7.43;;;0.40;99.90;;;;;;4965691;28;20042;-73
2023/12/05 03:14:40;;;;;;;11.63;6.18;;;0.30;99.90;;;;;;4965706;28;20383;-73
2023/12/05 03:17:06;;;;;;;9.98;6.88;;;0.30;99.90;;;;;;4949693;28;20047;-73
2023/12/05 03:19:32;;;;;;;9.05;6.88;;;0.30;99.90;;;;;;4965751;28;20786;-73
2023/12/05 03:21:57;;;;;;;9.68;6.45;;;0.40;99.90;;;;;;4966695;28;20042;-73
2023/12/05 03:24:23;;;;;;;10.27;6.75;;;0.30;99.90;;;;;;4964869;28;20070;-73
2023/12/05 03:26:49;;;;;;;10.30;5.90;;;0.30;99.90;;;;;;4950755;28;20035;-73
2023/12/05 03:29:14;;;;;;;15.98;6.93;;;0.30;99.90;;;;;;4969973;28;20039;-73
2023/12/05 03:31:40;;;;;;;11.10;6.30;;;0.40;99.90;;;;;;4978672;28;20057;-73
2023/12/05 03:34:06;;;;;;;17.10;7.63;;;0.40;99.90;;;;;;4989650;28;20393;-73
2023/12/05 03:36:32;;;;;;;11.65;6.43;;;0.40;99.90;;;;;;4988254;28;20508;-73
2023/12/05 03:38:58;;;;;;;11.02;6.60;;;0.30;99.90;;;;;;4974123;28;20049;-73
2023/12/05 03:41:25;;;;;;;10.35;6.40;;;0.30;99.90;;;;;;5006024;28;20046;-74
2023/12/05 03:43:50;;;;;;;11.40;6.35;;;0.30;99.90;;;;;;4989272;28;20524;-73
2023/12/05 03:46:16;;;;;;;11.80;6.65;;;0.30;99.90;;;;;;4988493;28;20157;-73
2023/12/05 03:48:42;;;;;;;10.63;6.82;;;0.30;99.90;;;;;;4973322;28;20092;-73
2023/12/05 03:51:08;;;;;;;12.25;6.43;;;0.30;99.90;;;;;;4970618;28;20050;-73
2023/12/05 03:53:33;;;;;;;10.25;6.03;;;0.30;99.90;;;;;;4987482;28;20123;-73
2023/12/05 03:55:59;;;;;;;11.60;6.72;;;0.30;99.90;;;;;;4973709;28;20057;-73
2023/12/05 03:58:25;;;;;;;12.98;7.32;;;0.40;99.90;;;;;;4987571;28;20069;-73
2023/12/05 04:00:51;;;;;;;9.68;6.20;;;0.30;99.90;;;;;;4989512;28;20092;-73
2023/12/05 04:03:17;;;;;;;14.07;7.32;;;0.40;99.90;;;;;;4971524;28;20046;-73
2023/12/05 04:05:43;;;;;;;9.38;6.22;;;0.50;99.90;;;;;;5006183;28;20135;-73
2023/12/05 04:08:10;;;;;;;12.10;6.13;;;0.40;99.90;;;;;;4988622;28;20049;-73
2023/12/05 04:10:35;;;;;;;15.27;6.70;;;0.40;99.90;;;;;;4988423;28;20054;-73
2023/12/05 04:13:01;;;;;;;9.60;5.38;;;0.30;99.90;;;;;;4988592;28;20050;-73
2023/12/05 04:15:27;;;;;;;8.25;5.70;;;0.40;99.90;;;;;;4987194;28;20100;-73
2023/12/05 04:17:52;;;;;;;13.70;6.05;;;0.40;99.90;;;;;;4972149;28;20439;-72
2023/12/05 04:20:18;;;;;;;11.98;6.90;;;0.40;99.90;;;;;;4985799;28;20483;-73
2023/12/05 04:22:44;;;;;;;8.55;5.78;;;0.50;99.90;;;;;;4987541;28;20046;-74
2023/12/05 04:25:11;;;;;;;15.27;8.43;;;0.40;99.90;;;;;;4988642;28;20054;-73
2023/12/05 04:27:36;;;;;;;9.77;6.22;;;0.50;99.90;;;;;;4971216;28;20450;-73
2023/12/05 04:30:03;;;;;;;16.88;7.32;;;0.50;99.90;;;;;;4989155;28;20060;-73
2023/12/05 04:32:29;;;;;;;12.85;6.55;;;0.40;99.90;;;;;;4967957;28;20405;-73
2023/12/05 04:34:55;;;;;;;13.30;7.10;;;0.40;99.90;;;;;;4959846;28;20042;-73
2023/12/05 04:37:20;;;;;;;16.17;7.72;;;0.40;99.90;;;;;;4986364;28;20705;-73
2023/12/05 04:39:46;;;;;;;13.60;7.00;;;0.40;99.90;;;;;;4987510;28;20046;-73
2023/12/05 04:42:11;;;;;;;11.98;6.57;;;0.40;99.90;;;;;;4952845;28;20539;-71
2023/12/05 04:44:37;;;;;;;12.75;6.85;;;0.40;99.90;;;;;;4976405;28;20038;-74
2023/12/05 04:47:03;;;;;;;13.50;6.65;;;0.40;99.90;;;;;;4968893;28;20076;-74
2023/12/05 04:49:30;;;;;;;11.40;6.55;;;0.30;99.90;;;;;;4970993;28;20080;-74
2023/12/05 04:51:57;;;;;;;13.10;7.05;;;0.40;99.90;;;;;;4968198;28;20056;-73
2023/12/05 04:54:22;;;;;;;11.23;6.93;;;0.30;99.90;;;;;;5002699;28;20314;-73
2023/12/05 04:56:48;;;;;;;12.27;7.25;;;0.40;99.90;;;;;;4969776;28;20042;-74
2023/12/05 04:59:14;;;;;;;9.57;5.50;;;0.40;99.90;;;;;;4985625;28;20497;-73
2023/12/05 05:01:40;;;;;;;12.00;6.93;;;0.40;99.90;;;;;;4985722;28;20496;-73
2023/12/05 05:04:05;;;;;;;11.43;6.55;;;0.40;99.90;;;;;;4985729;28;20049;-74
2023/12/05 05:06:31;;;;;;;9.88;6.20;;;0.40;99.90;;;;;;4987353;28;20138;-73
2023/12/05 05:08:57;;;;;;;11.07;6.45;;;0.50;99.90;;;;;;4985284;28;20125;-74
2023/12/05 05:11:23;;;;;;;10.35;5.93;;;0.30;99.90;;;;;;4970177;28;20052;-74
2023/12/05 05:13:49;;;;;;;9.10;6.38;;;0.30;99.90;;;;;;4987986;28;20528;-74
2023/12/05 05:16:15;;;;;;;14.07;6.88;;;0.30;99.90;;;;;;4985571;28;20038;-74
2023/12/05 05:18:40;;;;;;;19.90;7.07;;;0.30;99.90;;;;;;4985500;28;20064;-74
2023/12/05 05:21:07;;;;;;;10.10;5.93;;;0.40;99.90;;;;;;4968429;28;20069;-73
2023/12/05 05:23:35;;;;;;;9.98;6.43;;;0.40;99.90;;;;;;4985177;28;20049;-73
2023/12/05 05:26:01;;;;;;;8.38;5.50;;;0.30;99.90;;;;;;4987235;28;20041;-74
2023/12/05 05:28:26;;;;;;;15.02;7.40;;;0.40;99.90;;;;;;4985043;28;20084;-74
2023/12/05 05:30:54;;;;;;;14.18;7.70;;;0.30;99.90;;;;;;4985566;28;20077;-74
2023/12/05 05:33:23;;;;;;;13.43;7.00;;;0.30;99.90;;;;;;4998621;28;20046;-73
2023/12/05 05:35:50;;;;;;;11.90;6.65;;;0.30;99.90;;;;;;4970527;28;20370;-74
2023/12/05 05:38:16;;;;;;;14.60;7.18;;;0.30;99.90;;;;;;4968916;28;20042;-74
2023/12/05 05:40:42;;;;;;;11.70;6.85;;;0.30;99.90;;;;;;4986526;28;20046;-73
2023/12/05 05:43:08;;;;;;;11.98;7.07;;;0.30;99.90;;;;;;4968672;28;20042;-71
2023/12/05 05:45:34;;;;;;;14.65;7.45;;;0.40;99.90;;;;;;4970212;28;20049;-71
2023/12/05 05:47:59;;;;;;;12.35;7.32;;;0.30;99.90;;;;;;4988111;28;20165;-71
2023/12/05 05:50:25;;;;;;;12.07;6.70;;;0.30;99.90;;;;;;4985077;28;20038;-71
2023/12/05 05:52:51;;;;;;;12.55;6.72;;;0.30;99.90;;;;;;4984209;28;20042;-71
2023/12/05 05:55:18;;;;;;;9.88;6.45;;;0.30;99.90;;;;;;4984093;28;20484;-71
2023/12/05 05:57:44;;;;;;;11.82;6.40;;;0.30;99.90;;;;;;4984928;28;20053;-71
2023/12/05 06:00:11;;;;;;;13.30;7.60;;;0.30;99.90;;;;;;4954782;28;20512;-73
2023/12/05 06:02:37;;;;;;;11.15;6.80;;;0.30;99.90;;;;;;4983248;28;20430;-73
2023/12/05 06:05:04;;;;;;;13.13;7.22;;;0.30;99.90;;;;;;4987288;28;20050;-72
2023/12/05 06:07:30;;;;;;;15.23;7.93;;;0.30;99.90;;;;;;4954135;28;20061;-73
2023/12/05 06:09:57;;;;;;;13.40;7.07;;;0.30;99.90;;;;;;4984834;28;20476;-72
2023/12/05 06:12:23;;;;;;;14.80;8.05;;;0.30;99.90;;;;;;4985700;28;20494;-73
2023/12/05 06:14:49;;;;;;;11.95;7.18;;;0.20;99.90;;;;;;4968253;28;20065;-73
2023/12/05 06:17:15;;;;;;;15.13;8.13;;;0.20;99.90;;;;;;4952369;28;20042;-73
2023/12/05 06:19:41;;;;;;;14.52;7.95;;;0.30;99.90;;;;;;4983970;28;20045;-73
2023/12/05 06:22:07;;;;;;;17.45;7.65;;;0.20;99.90;;;;;;4968718;28;20042;-73
2023/12/05 06:24:32;;;;;;;13.68;8.07;;;0.30;99.90;;;;;;4951526;28;20053;-73
2023/12/05 06:26:59;;;;;;;12.65;7.30;;;0.30;99.90;;;;;;4986419;28;20052;-73
2023/12/05 06:29:25;;;;;;;13.85;6.97;;;0.30;99.90;;;;;;4971152;28;20085;-72
2023/12/05 06:31:51;;;;;;;13.35;7.43;;;0.20;99.90;;;;;;4986489;28;20049;-73
2023/12/05 06:34:16;;;;;;;18.98;8.80;;;0.20;99.90;;;;;;4986514;28;20107;-73
2023/12/05 06:36:42;;;;;;;14.98;7.68;;;0.20;99.90;;;;;;4986165;28;20496;-72
2023/12/05 06:39:08;;;;;;;13.65;7.25;;;0.20;99.90;;;;;;4984264;28;20034;-73
2023/12/05 06:41:36;;;;;;;11.23;6.95;;;0.20;99.90;;;;;;4983684;28;20042;-72
2023/12/05 06:44:02;;;;;;;15.35;8.57;;;0.20;99.90;;;;;;4966898;28;20060;-73
2023/12/05 06:46:28;;;;;;;16.90;7.93;;;0.20;99.90;;;;;;4966601;28;20053;-73
2023/12/05 06:48:54;;;;;;;14.05;6.93;;;0.20;99.90;;;;;;4983646;28;20132;-72
2023/12/05 06:51:21;;;;;;;17.40;7.88;;;0.30;99.90;;;;;;4983861;28;20584;-73
2023/12/05 06:53:47;;;;;;;12.13;7.22;;;0.20;99.90;;;;;;4983610;28;20111;-73
2023/12/05 06:56:14;;;;;;;12.73;7.38;;;0.20;99.90;;;;;;4984042;28;20041;-73
2023/12/05 06:58:40;;;;;;;12.45;7.60;;;0.10;99.90;;;;;;4967775;28;20467;-73
2023/12/05 07:01:07;;;;;;;11.25;7.28;;;0.10;99.90;;;;;;4966400;28;20485;-73
2023/12/05 07:03:32;;;;;;;13.27;7.40;;;0.10;99.90;;;;;;4959307;28;20408;-73
2023/12/05 07:05:58;;;;;;;12.93;7.65;;;0.10;99.90;;;;;;4969295;28;20046;-73
2023/12/05 07:08:24;;;;;;;13.35;8.13;;;0.20;99.90;;;;;;4983939;28;20468;-73
2023/12/05 07:10:50;;;;;;;14.18;7.18;;;0.10;99.90;;;;;;4983854;28;20085;-73
2023/12/05 07:13:16;;;;;;;8.85;6.40;;;0.10;99.90;;;;;;4968301;28;20054;-73
2023/12/05 07:15:42;;;;;;;11.70;6.70;;;0.10;99.90;;;;;;5002391;28;20104;-73
2023/12/05 07:18:09;;;;;;;17.15;7.95;;;0.10;99.90;;;;;;4969190;28;20046;-73
2023/12/05 07:20:34;;;;;;;9.98;7.32;;;0.10;99.90;;;;;;4982656;28;20038;-73
2023/12/05 07:23:00;;;;;;;14.63;7.65;;;0.10;99.90;;;;;;4984714;28;20119;-73
2023/12/05 07:25:26;;;;;;;15.52;8.27;;;0.10;99.90;;;;;;4985017;28;20443;-72
2023/12/05 07:27:52;;;;;;;17.67;8.00;;;0.20;99.90;;;;;;4951192;28;20485;-73
2023/12/05 07:30:18;;;;;;;13.02;7.57;;;0.20;99.90;;;;;;4982887;28;20124;-73
2023/12/05 07:32:45;;;;;;;17.10;7.32;;;0.10;99.90;;;;;;4966193;28;20076;-72
2023/12/05 07:35:11;;;;;;;12.75;7.35;;;0.20;99.90;;;;;;4982662;28;20049;-73
2023/12/05 07:37:37;;;;;;;18.27;8.25;;;0.10;99.90;;;;;;4982939;28;20408;-73
2023/12/05 07:40:05;;;;;;;13.77;7.05;;;0.10;99.90;;;;;;4967389;28;20054;-72
2023/12/05 07:42:31;;;;;;;15.10;7.55;;;0.10;99.90;;;;;;4983013;28;20057;-73
2023/12/05 07:44:57;;;;;;;13.25;7.15;;;0.20;99.90;;;;;;4983532;28;20038;-72
2023/12/05 07:47:23;;;;;;;18.63;7.55;;;0.10;99.90;;;;;;4982070;28;20128;-73
2023/12/05 07:49:49;;;;;;;14.18;8.07;;;0.10;99.90;;;;;;4967193;28;20125;-73
2023/12/05 07:52:15;;;;;;;12.38;7.50;;;0.00;99.90;;;;;;4980990;28;20136;-73
2023/12/05 07:54:41;;;;;;;11.25;6.70;;;0.00;99.90;;;;;;4967404;28;20116;-73
2023/12/05 07:57:07;;;;;;;12.70;7.65;;;0.00;99.90;;;;;;4983062;28;20049;-73
2023/12/05 07:59:32;;;;;;;14.15;7.72;;;0.10;99.90;;;;;;4967049;28;20492;-72
2023/12/05 08:01:58;;;;;;;15.60;8.32;;;0.10;99.90;;;;;;4982616;28;20046;-73
2023/12/05 08:04:24;;;;;;;14.60;7.85;;;0.10;99.90;;;;;;4966091;28;20040;-73
2023/12/05 08:06:50;;;;;;;10.32;6.82;;;0.10;99.90;;;;;;4982928;28;20049;-73
2023/12/05 08:09:16;;;;;;;12.38;7.35;;;0.10;99.90;;;;;;4966651;28;20046;-72
2023/12/05 08:11:42;;;;;;;13.07;7.93;;;0.10;99.90;;;;;;4983032;28;20057;-73
2023/12/05 08:14:08;;;;;;;11.20;7.30;;;0.20;99.90;;;;;;4984781;28;20048;-73
2023/12/05 08:16:33;;;;;;;15.00;8.15;;;0.10;99.90;;;;;;4980967;28;20046;-73
2023/12/05 08:18:59;;;;;;;15.40;8.10;;;0.20;99.90;;;;;;5002287;28;20060;-73
2023/12/05 08:21:25;;;;;;;15.20;7.97;;;0.10;99.90;;;;;;4952267;28;20054;-72
2023/12/05 08:23:52;;;;;;;13.43;8.32;;;0.10;99.90;;;;;;4969575;28;20124;-73
2023/12/05 08:26:18;;;;;;;13.73;7.88;;;0.20;99.90;;;;;;4983671;28;20057;-72
2023/12/05 08:28:44;;;;;;;12.40;8.02;;;0.20;99.90;;;;;;4970912;28;20046;-73
2023/12/05 08:31:09;;;;;;;13.02;7.25;;;0.20;99.90;;;;;;4985625;28;20329;-73
2023/12/05 08:33:35;;;;;;;13.25;7.68;;;0.20;99.90;;;;;;4972583;28;20046;-73
2023/12/05 08:36:01;;;;;;;12.07;7.25;;;0.20;99.90;;;;;;4965215;28;20046;-73
2023/12/05 08:38:27;;;;;;;14.73;7.88;;;0.20;99.90;;;;;;4988214;28;20049;-73
2023/12/05 08:40:54;;;;;;;13.77;7.63;;;0.20;99.90;;;;;;4983748;28;20053;-74
2023/12/05 08:43:19;;;;;;;15.90;8.70;;;0.20;99.90;;;;;;4972740;28;20089;-74
2023/12/05 08:45:45;;;;;;;15.65;8.75;;;0.20;99.90;;;;;;4985776;28;20140;-73
2023/12/05 08:48:11;;;;;;;13.68;8.23;;;0.20;99.90;;;;;;4985466;28;20548;-73
2023/12/05 08:50:37;;;;;;;14.00;7.97;;;0.20;99.90;;;;;;4980259;28;20772;-74
2023/12/05 08:53:03;;;;;;;14.77;8.57;;;0.20;99.90;;;;;;4963752;28;20050;-74
2023/12/05 08:55:29;;;;;;;16.42;9.10;;;0.30;99.90;;;;;;4982679;28;20087;-74
2023/12/05 08:57:55;;;;;;;15.02;9.10;;;0.20;99.90;;;;;;4985037;28;20046;-74
2023/12/05 09:00:21;;;;;;;14.05;7.60;;;0.30;99.90;;;;;;4973286;28;20500;-73
2023/12/05 09:02:47;;;;;;;15.55;8.15;;;0.20;99.90;;;;;;4970107;28;20476;-74
2023/12/05 09:05:13;;;;;;;16.08;8.50;;;0.30;99.90;;;;;;4968117;28;20049;-73
2023/12/05 09:07:39;;;;;;;16.60;9.05;;;0.20;99.90;;;;;;4971225;28;20087;-74
2023/12/05 09:10:05;;;;;;;13.73;7.85;;;0.20;99.90;;;;;;4984625;28;20046;-74
2023/12/05 09:12:32;;;;;;;13.90;7.93;;;0.20;99.90;;;;;;4967978;28;20034;-74
2023/12/05 09:14:58;;;;;;;15.32;8.20;;;0.20;99.90;;;;;;5003363;28;20037;-73
2023/12/05 09:17:24;;;;;;;13.98;7.65;;;0.20;99.90;;;;;;4984888;28;20050;-74
2023/12/05 09:19:50;;;;;;;15.68;8.80;;;0.30;99.90;;;;;;4966911;28;20340;-73
2023/12/05 09:22:17;;;;;;;15.90;8.82;;;0.30;99.90;;;;;;4967633;28;20257;-73
2023/12/05 09:24:43;;;;;;;16.35;8.52;;;0.30;99.90;;;;;;4984384;28;20427;-73
2023/12/05 09:27:09;;;;;;;16.45;9.05;;;0.40;99.90;;;;;;4984129;28;20080;-73
2023/12/05 09:29:34;;;;;;;16.60;9.52;;;0.40;99.90;;;;;;4954256;28;20042;-73
2023/12/05 09:32:00;;;;;;;18.85;10.18;;;0.40;99.90;;;;;;4967099;28;20500;-73
2023/12/05 09:34:26;;;;;;;14.25;7.40;;;0.40;99.90;;;;;;4984305;28;20465;-73
2023/12/05 09:36:52;;;;;;;13.55;8.00;;;0.30;99.90;;;;;;4967183;28;20112;-73
2023/12/05 09:39:17;;;;;;;15.80;8.77;;;0.30;99.90;;;;;;4998309;28;20037;-73
2023/12/05 09:41:54;;;;;;;16.90;9.50;;;0.40;99.90;;;;;;4987305;28;20053;-73
2023/12/05 09:44:23;;;;;;;15.90;8.55;;;0.30;99.90;;;;;;4981483;28;20060;-73
2023/12/05 09:46:57;;;;;;;16.45;8.75;;;0.40;99.90;;;;;;4986248;28;20960;-73
2023/12/05 09:49:27;;;;;;;17.58;9.02;;;0.40;99.90;;;;;;4982305;28;20492;-74
2023/12/05 09:51:54;;;;;;;18.88;9.48;;;0.40;99.90;;;;;;4983344;28;20451;-74
2023/12/05 09:54:21;;;;;;;17.30;9.60;;;0.40;99.90;;;;;;4967139;28;20153;-73
2023/12/05 09:56:48;;;;;;;19.00;8.60;;;0.50;99.90;;;;;;4982812;28;20507;-73
2023/12/05 09:59:15;;;;;;;15.43;10.02;;;0.50;99.90;;;;;;4988147;28;20381;-73
2023/12/05 10:01:43;;;;;;;14.82;8.35;;;0.50;99.90;;;;;;4968823;28;20046;-73
2023/12/05 10:04:11;;;;;;;15.63;8.27;;;0.60;99.90;;;;;;4982816;28;20069;-73
2023/12/05 10:06:37;;;;;;;20.05;10.00;;;0.60;99.90;;;;;;4982727;28;20045;-73
2023/12/05 10:09:06;;;;;;;18.35;9.18;;;0.50;99.90;;;;;;4968838;28;20432;-73
2023/12/05 10:11:33;;;;;;;20.58;11.18;;;0.50;99.90;;;;;;4968375;28;20041;-74
2023/12/05 10:14:02;;;;;;;20.42;10.45;;;0.50;99.90;;;;;;4983239;28;20038;-73
2023/12/05 10:16:28;;;;;;;18.00;9.55;;;0.50;99.90;;;;;;4986970;28;20065;-73
2023/12/05 10:18:54;;;;;;;20.02;9.60;;;0.60;99.90;;;;;;4968675;28;20046;-73
2023/12/05 10:21:19;;;;;;;22.35;10.10;;;0.60;99.90;;;;;;4951521;28;20198;-73
2023/12/05 10:23:45;;;;;;;17.40;10.18;;;0.60;99.90;;;;;;4983125;28;20084;-73
2023/12/05 10:26:11;;;;;;;15.93;10.02;;;0.60;99.90;;;;;;4966631;28;20480;-73
2023/12/05 10:28:53;;;;;;;24.70;11.65;;;0.50;99.90;;;;;;4968086;28;20369;-73
2023/12/05 10:31:19;;;;;;;18.38;10.38;;;0.60;99.90;;;;;;4974510;28;20057;-73
2023/12/05 10:33:49;;;;;;;19.27;10.75;;;0.60;99.90;;;;;;4948938;28;20050;-73
2023/12/05 10:36:15;;;;;;;;;;;0.60;99.90;;;;;;4977905;28;20129;-73
2023/12/05 10:38:48;;;;;;;17.45;9.50;;;0.50;99.90;;;;;;4970672;28;20025;-72
2023/12/05 10:41:24;;;;;;;19.45;8.98;;;0.60;99.90;;;;;;4974616;23;20094;-72
2023/12/05 10:44:02;;;;;;;22.25;10.77;;;0.50;99.90;;;;;;4956536;28;20440;-72
2023/12/05 10:46:28;;;;;;;16.17;9.75;;;0.50;99.90;;;;;;4937524;28;20532;-73
2023/12/05 10:48:55;;;;;;;19.67;11.05;;;0.50;99.90;;;;;;4944702;28;20039;-73
2023/12/05 10:51:25;;;;;;;19.77;11.13;;;0.50;99.90;;;;;;4944216;23;20780;-73
2023/12/05 10:53:53;;;;;;;24.83;11.70;;;0.50;99.90;;;;;;5001772;28;20085;-73
2023/12/05 10:59:42;;;;;;;24.33;11.35;;;0.40;99.90;;;;;;5026193;23;20061;-72
2023/12/05 11:02:14;;;;;;;21.58;11.85;;;0.40;99.90;;;;;;5016752;28;20129;-72
2023/12/05 11:04:41;;;;;;;19.42;11.00;;;0.40;99.90;;;;;;4969325;28;20066;-72
2023/12/05 11:07:08;;;;;;;20.65;10.82;;;0.50;99.90;;;;;;5002084;28;20088;-73
2023/12/05 11:09:44;;;;;;;22.05;11.50;;;0.40;99.90;;;;;;4990136;28;20034;-72
2023/12/05 11:12:11;;;;;;;20.00;11.43;;;0.50;99.90;;;;;;5001322;28;20137;-72
2023/12/05 11:14:45;;;;;;;25.17;11.85;;;0.40;99.90;;;;;;4983366;28;20042;-72
2023/12/05 11:17:19;;;;;;;20.63;11.15;;;0.50;99.90;;;;;;4984634;28;20142;-72
2023/12/05 11:20:12;;;;;;;21.25;10.18;;;0.40;99.90;;;;;;4965015;28;20046;-72
2023/12/05 11:23:14;;;;;;;24.15;11.65;;;0.50;99.90;;;;;;4966137;28;20516;-72
2023/12/05 11:25:46;;;;;;;24.80;12.60;;;0.50;99.90;;;;;;4985630;28;20061;-72
2023/12/05 11:28:32;;;;;;;22.25;12.00;;;0.50;99.90;;;;;;5015006;28;20197;-72
2023/12/05 11:31:00;;;;;;;22.17;11.65;;;0.50;99.90;;;;;;4981480;28;20879;-72
2023/12/05 11:33:54;;;;;;;23.92;11.73;;;0.50;99.90;;;;;;4982642;28;20152;-72
2023/12/05 11:36:54;;;;;;;22.77;12.02;;;0.40;99.90;;;;;;5011704;28;20115;-72
2023/12/05 11:39:21;;;;;;;26.55;12.45;;;0.40;99.90;;;;;;4997886;28;20156;-72
2023/12/05 11:42:10;;;;;;;24.90;12.63;;;0.40;99.90;;;;;;4982651;28;20080;-71
2023/12/05 11:44:42;;;;;;;22.10;11.88;;;0.40;99.90;;;;;;4982017;28;20045;-72
2023/12/05 11:47:28;;;;;;;22.42;12.00;;;0.40;99.90;;;;;;4998304;28;20046;-72
2023/12/05 11:50:00;;;;;;;23.00;11.27;;;0.40;99.90;;;;;;4987619;28;20056;-71
2023/12/05 11:52:39;;;;;;;20.77;11.02;;;0.40;99.90;;;;;;4986580;28;20477;-72
2023/12/05 11:55:05;;;;;;;21.60;11.23;;;0.40;99.90;;;;;;4997100;28;20060;-71
2023/12/05 11:57:33;;;;;;;23.30;12.20;;;0.50;99.90;;;;;;4990528;28;20857;-71
2023/12/05 12:00:11;;;;;;;24.52;12.32;;;0.50;99.90;;;;;;5024541;28;20084;-71
2023/12/05 12:02:37;;;;;;;27.23;11.98;;;0.50;99.90;;;;;;5001099;28;20536;-71
2023/12/05 12:05:09;;;;;;;24.20;12.40;;;0.50;99.90;;;;;;4990466;28;20563;-71
2023/12/05 12:07:57;;;;;;;23.92;12.80;;;0.50;99.90;;;;;;4969871;28;20532;-71
2023/12/05 12:10:24;;;;;;;22.42;12.65;;;0.50;99.90;;;;;;4983725;28;20139;-71
2023/12/05 12:12:54;;;;;;;28.70;13.23;;;0.50;99.90;;;;;;4985296;28;20058;-71
2023/12/05 12:15:24;;;;;;;31.92;12.48;;;0.50;99.90;;;;;;5018126;28;20050;-71
2023/12/05 12:17:49;;;;;;;25.25;12.65;;;0.50;99.90;;;;;;4972670;28;20520;-71
2023/12/05 12:20:17;;;;;;;24.98;13.15;;;0.50;99.90;;;;;;5007389;28;20044;-70
2023/12/05 12:22:48;;;;;;;25.98;13.30;;;0.50;99.90;;;;;;4970521;28;20112;-71
2023/12/05 12:25:14;;;;;;;23.42;12.55;;;0.50;99.90;;;;;;5005754;28;20038;-71
2023/12/05 12:27:44;;;;;;;23.88;11.98;;;0.50;99.90;;;;;;5003998;28;21729;-71
2023/12/05 12:30:15;;;;;;;30.30;12.85;;;0.50;99.90;;;;;;4987694;28;20081;-71
2023/12/05 12:32:58;;;;;;;26.50;13.38;;;0.50;99.90;;;;;;5018445;28;20049;-71
2023/12/05 12:35:24;;;;;;;23.80;12.52;;;0.50;99.90;;;;;;4987209;28;20038;-71
2023/12/05 12:37:51;;;;;;;23.58;12.65;;;0.50;99.90;;;;;;4990758;28;20057;-71
2023/12/05 12:40:21;;;;;;;28.10;13.43;;;0.50;99.90;;;;;;4988367;28;20046;-71
2023/12/05 12:42:51;;;;;;;26.27;13.73;;;0.50;99.90;;;;;;4978970;28;20439;-71
2023/12/05 12:45:18;;;;;;;;;;;0.50;99.90;;;;;;5002503;28;20081;-71
2023/12/05 12:47:44;;;;;;;29.33;13.15;;;0.50;99.90;;;;;;5019694;28;19931;-70
2023/12/05 12:50:11;;;;;;;25.27;12.80;;;0.50;99.90;;;;;;5018846;28;20312;-71
2023/12/05 12:52:37;;;;;;;28.20;13.30;;;0.50;99.90;;;;;;4984956;28;20107;-70
2023/12/05 12:55:05;;;;;;;24.90;14.27;;;0.50;99.90;;;;;;5004711;28;20058;-71